EHDB weather

[Duplicate] KNMI
De Bilt, Utrecht, Netherlands

Public forecast

Using degrees Celsius for public forecast. Weather courtesy of forecast.io.

METAR (pilot weather report)

Closest report is Amsterdam Airport Schiphol, 19.7 nm (36.5 km) NW. Retrieved 2018/02/23 00:25 UTC (5 minutes ago):

EHAM 230025Z 07008KT CAVOK M01/M03 Q1024 NOSIG

TAF (pilot weather forecast)

Forecast is more than 12 hours old.

Closest forecast is Amsterdam Airport Schiphol, 19.7 nm (36.5 km) NW. Retrieved 2018/02/22 00:28 UTC (1 day ago):

TAF EHAM 222309Z 2300/2406 06006KT CAVOK BECMG 2301/2304 7000 PROB30 2305/2309 4000 BR SCT008 BECMG 2308/2311 08014KT CAVOK